Little Grand Rapids, Canada
Current Conditions -  °F | °C
As of 12:00 PM on Saturday 25 Oct 2014 (Local Time) from CYRL Reporting Station
Broken Clouds Broken Clouds  
Wind Chill: 35°   Ceiling: 2800
Heat Index: 43°   Visibility: 15mi
Dew Point: 30°   Wind: 17mph
Humidity: 61%   Direction: 280°W
Pressure: 29.79"   Gusts: 28mph
Location:  52.05°N, 95.48°W
Report Text: CYRL 251700Z 28015G24KT 260V320 15SM BKN028 BKN045 06/M01 A2979 RMK SC5SC2 SLP100
Loading
Personal Weather Stations






























Interactive Weather Map
Tropical Storm Tracking
New forecast layout! Learn more

10-Day Weather Forecast

Advertisements
Track Severe Weather on mobile